Terminal Aerodrome Forecast
Issued by NWS

Home | Current Version | Previous Version | Text Only | Print | Product List | Glossary On
Versions: 1 2 3 4 5 6 7 8 9 10 11 12 13 14 15 16
000
FTUS46 KSEW 010527
TAFCLM
TAF
KCLM 010527Z 0106/0206 27006KT P6SM BKN250
     FM011300 28004KT P6SM BKN120 BKN250
     FM012000 30008KT P6SM BKN060 BKN120=

USA.gov is the U.S. government's official web portal to all federal, state and local government web resources and services.